createdAt,value
2023-10-02T00:02:40.894Z,25.00
2023-10-02T00:05:09.220Z,23.92
2023-10-02T00:07:37.825Z,24.77
2023-10-02T00:10:06.628Z,25.17
2023-10-02T00:12:36.581Z,24.40
2023-10-02T00:15:15.902Z,28.23
2023-10-02T00:17:46.749Z,22.55
2023-10-02T00:20:22.958Z,27.63
2023-10-02T00:22:51.998Z,23.13
2023-10-02T00:25:23.608Z,26.30
2023-10-02T00:27:52.630Z,23.42
2023-10-02T00:30:23.277Z,22.00
2023-10-02T00:32:52.389Z,23.60
2023-10-02T00:35:20.198Z,28.05
2023-10-02T00:37:55.071Z,22.65
2023-10-02T00:40:32.449Z,23.10
2023-10-02T00:43:01.424Z,23.10
2023-10-02T00:45:43.830Z,25.52
2023-10-02T00:48:26.877Z,23.40
2023-10-02T00:51:07.484Z,23.77
2023-10-02T00:53:41.734Z,27.10
2023-10-02T00:56:22.932Z,25.67
2023-10-02T00:59:03.413Z,24.70
2023-10-02T01:01:38.320Z,25.38
2023-10-02T01:04:12.756Z,25.00
2023-10-02T01:07:02.001Z,21.23
2023-10-02T01:09:35.624Z,23.80
2023-10-02T01:12:04.172Z,23.52
2023-10-02T01:14:41.930Z,20.17
2023-10-02T01:17:10.451Z,24.40
2023-10-02T01:19:57.799Z,22.85
2023-10-02T01:22:28.655Z,22.33
2023-10-02T01:25:17.267Z,24.55
2023-10-02T01:27:49.854Z,24.15
2023-10-02T01:30:19.719Z,22.38
2023-10-02T01:33:13.798Z,20.33
2023-10-02T01:35:48.878Z,20.40
2023-10-02T01:38:15.867Z,20.00
2023-10-02T01:40:49.505Z,24.88
2023-10-02T01:43:20.416Z,22.75
2023-10-02T01:45:47.403Z,18.63
2023-10-02T01:48:17.159Z,21.85
2023-10-02T01:50:44.912Z,22.55
2023-10-02T01:56:01.804Z,20.27
2023-10-02T01:58:29.306Z,21.48
2023-10-02T02:00:56.080Z,20.65
2023-10-02T02:03:23.596Z,17.63
2023-10-02T02:05:50.781Z,24.70
2023-10-02T02:08:23.549Z,17.15
2023-10-02T02:10:55.795Z,19.83
2023-10-02T02:13:23.698Z,16.40
2023-10-02T02:16:09.015Z,18.13
2023-10-02T02:18:35.767Z,21.30
2023-10-02T02:21:04.200Z,23.80
2023-10-02T02:23:32.864Z,20.75
2023-10-02T02:26:00.093Z,19.70
2023-10-02T02:28:26.757Z,19.88
2023-10-02T02:30:53.561Z,19.73
2023-10-02T02:33:35.895Z,20.30
2023-10-02T02:36:07.124Z,21.90
2023-10-02T02:38:36.906Z,19.83
2023-10-02T02:41:08.038Z,23.25
2023-10-02T02:43:38.429Z,16.25
2023-10-02T02:46:08.386Z,21.38
2023-10-02T02:48:45.429Z,18.75
2023-10-02T02:51:23.121Z,21.40
2023-10-02T02:53:52.473Z,21.77
2023-10-02T02:56:25.380Z,20.52
2023-10-02T02:58:57.279Z,20.90
2023-10-02T03:01:24.542Z,21.00
2023-10-02T03:04:12.520Z,17.92
2023-10-02T03:06:39.895Z,21.17
2023-10-02T03:09:07.457Z,25.60
2023-10-02T03:11:34.098Z,18.98
2023-10-02T03:14:18.204Z,18.75
2023-10-02T03:16:48.310Z,21.05
2023-10-02T03:19:17.374Z,19.30
2023-10-02T03:21:44.308Z,22.00
2023-10-02T03:24:14.304Z,18.38
2023-10-02T03:26:44.691Z,23.58
2023-10-02T03:29:23.293Z,18.23
2023-10-02T03:31:52.010Z,18.83
2023-10-02T03:34:29.013Z,20.35
2023-10-02T03:37:15.335Z,21.63
2023-10-02T03:40:02.836Z,22.45
2023-10-02T03:42:37.501Z,19.73
2023-10-02T03:45:06.488Z,26.50
2023-10-02T03:47:37.111Z,24.52
2023-10-02T03:50:08.276Z,23.50
2023-10-02T03:52:35.470Z,21.05
2023-10-02T03:55:21.322Z,21.33
2023-10-02T03:57:52.277Z,24.25
2023-10-02T04:00:27.574Z,24.55
2023-10-02T04:02:59.025Z,22.88
2023-10-02T04:05:43.776Z,19.17
2023-10-02T04:08:21.542Z,21.33
2023-10-02T04:10:56.813Z,21.45
2023-10-02T04:13:26.299Z,22.83
2023-10-02T04:15:55.263Z,18.42
2023-10-02T04:18:43.641Z,21.35
2023-10-02T04:21:13.732Z,23.08
2023-10-02T04:23:43.962Z,20.50
2023-10-02T04:26:20.838Z,23.55
2023-10-02T04:28:57.144Z,21.67
2023-10-02T04:31:29.920Z,22.92
2023-10-02T04:34:17.237Z,24.27
2023-10-02T04:36:45.027Z,22.30
2023-10-02T04:39:31.151Z,25.90
2023-10-02T04:42:20.883Z,19.50
2023-10-02T04:44:58.036Z,21.73
2023-10-02T04:47:31.914Z,21.65
2023-10-02T04:50:07.527Z,19.30
2023-10-02T04:52:56.593Z,22.10
2023-10-02T04:55:25.766Z,23.75
2023-10-02T04:57:56.044Z,20.42
2023-10-02T05:00:37.676Z,22.30
2023-10-02T05:03:32.217Z,21.17
2023-10-02T05:06:00.059Z,19.92
2023-10-02T05:08:36.541Z,24.35
2023-10-02T05:11:08.909Z,23.92
2023-10-02T05:13:54.580Z,21.67
2023-10-02T05:16:31.109Z,22.65
2023-10-02T05:18:58.353Z,25.63
2023-10-02T05:21:37.420Z,22.95
2023-10-02T05:24:05.494Z,24.40
2023-10-02T05:29:10.972Z,22.20
2023-10-02T05:34:23.918Z,22.83
2023-10-02T05:37:08.094Z,22.02
2023-10-02T05:39:41.521Z,23.10
2023-10-02T05:42:16.128Z,22.20
2023-10-02T05:44:46.822Z,28.05
2023-10-02T05:47:18.100Z,22.75
2023-10-02T05:49:54.824Z,26.67
2023-10-02T05:52:25.086Z,26.63
2023-10-02T05:54:55.607Z,23.27
2023-10-02T05:57:33.000Z,25.75
2023-10-02T06:00:01.612Z,27.70
2023-10-02T06:02:29.124Z,26.75
2023-10-02T06:05:08.709Z,21.15
2023-10-02T06:07:42.254Z,23.00
2023-10-02T06:10:10.881Z,23.88
2023-10-02T06:12:43.815Z,24.92
2023-10-02T06:15:31.628Z,27.48
2023-10-02T06:18:00.231Z,29.02
2023-10-02T06:20:26.938Z,26.23
2023-10-02T06:23:06.919Z,26.48
2023-10-02T06:28:20.710Z,24.92
2023-10-02T06:30:51.294Z,23.63
2023-10-02T06:33:19.158Z,23.17
2023-10-02T06:38:25.340Z,26.67
2023-10-02T06:40:58.487Z,26.80
2023-10-02T06:43:32.540Z,30.75
2023-10-02T06:46:07.896Z,26.20
2023-10-02T06:48:35.671Z,22.42
2023-10-02T06:51:04.461Z,25.88
2023-10-02T06:53:32.018Z,24.40
2023-10-02T06:56:06.420Z,25.77
2023-10-02T06:58:48.045Z,25.27
2023-10-02T07:01:15.422Z,25.77
2023-10-02T07:03:52.076Z,24.60
2023-10-02T07:06:25.478Z,23.05
2023-10-02T07:09:11.659Z,22.50
2023-10-02T07:14:07.604Z,22.92
2023-10-02T07:16:35.314Z,25.20
2023-10-02T07:19:03.052Z,26.35
2023-10-02T07:21:32.246Z,27.13
2023-10-02T07:24:04.060Z,32.10
2023-10-02T07:26:50.677Z,30.52
2023-10-02T07:29:18.944Z,22.75
2023-10-02T07:31:47.495Z,26.80
2023-10-02T07:34:17.485Z,29.50
2023-10-02T07:36:47.248Z,25.73
2023-10-02T07:39:34.479Z,28.08
2023-10-02T07:42:02.107Z,23.85
2023-10-02T07:44:39.044Z,24.52
2023-10-02T07:47:20.679Z,30.40
2023-10-02T07:49:56.682Z,24.38
2023-10-02T07:52:36.844Z,24.23
2023-10-02T07:55:04.327Z,25.38
2023-10-02T07:57:34.166Z,20.30
2023-10-02T08:00:07.496Z,28.25
2023-10-02T08:02:37.126Z,27.25
2023-10-02T08:05:04.649Z,24.13
2023-10-02T08:07:44.419Z,28.58
2023-10-02T08:10:16.176Z,27.83
2023-10-02T08:12:57.420Z,25.33
2023-10-02T08:15:27.788Z,23.10
2023-10-02T08:17:55.051Z,27.75
2023-10-02T08:20:26.099Z,27.25
2023-10-02T08:22:53.934Z,29.00
2023-10-02T08:25:25.028Z,26.35
2023-10-02T08:27:59.070Z,30.83
2023-10-02T08:30:32.811Z,30.35
2023-10-02T08:33:20.559Z,30.40
2023-10-02T08:36:02.610Z,31.15
2023-10-02T08:38:29.426Z,29.52
2023-10-02T08:41:04.263Z,30.67
2023-10-02T08:43:43.476Z,29.13
2023-10-02T08:46:22.696Z,31.10
2023-10-02T08:48:56.383Z,28.50
2023-10-02T08:57:02.591Z,31.25
2023-10-02T08:59:29.757Z,24.83
2023-10-02T09:02:16.947Z,32.45
2023-10-02T09:04:57.213Z,31.75
2023-10-02T09:07:25.651Z,26.20
2023-10-02T09:10:27.693Z,32.22
2023-10-02T09:13:15.267Z,27.88
2023-10-02T09:15:46.931Z,31.33
2023-10-02T09:18:35.825Z,28.80
2023-10-02T09:21:15.372Z,25.75
2023-10-02T09:23:52.488Z,27.40
2023-10-02T09:26:26.881Z,29.73
2023-10-02T09:29:02.924Z,25.35
2023-10-02T09:31:32.578Z,35.58
2023-10-02T09:34:21.256Z,30.40
2023-10-02T09:37:22.874Z,27.23
2023-10-02T09:39:51.826Z,29.13
2023-10-02T09:42:21.112Z,29.63
2023-10-02T09:44:50.673Z,33.95
2023-10-02T09:47:31.947Z,35.78
2023-10-02T09:50:13.930Z,28.63
2023-10-02T09:53:09.871Z,33.00
2023-10-02T09:55:52.005Z,28.50
2023-10-02T09:58:35.304Z,30.95
2023-10-02T10:01:28.114Z,24.77
2023-10-02T10:03:58.253Z,26.88
2023-10-02T10:06:42.983Z,22.08
2023-10-02T10:09:28.505Z,29.02
2023-10-02T10:12:14.172Z,24.00
2023-10-02T10:14:43.680Z,22.13
2023-10-02T10:17:23.241Z,27.98
2023-10-02T10:19:50.162Z,24.15
2023-10-02T10:22:52.084Z,26.33
2023-10-02T10:25:21.883Z,28.30
2023-10-02T10:28:17.689Z,25.42
2023-10-02T10:30:52.166Z,19.95
2023-10-02T10:33:20.985Z,29.25
2023-10-02T10:35:57.255Z,29.63
2023-10-02T10:38:32.739Z,27.75
2023-10-02T10:41:16.400Z,28.05
2023-10-02T10:43:53.076Z,28.67
2023-10-02T10:46:21.581Z,28.95
2023-10-02T10:49:25.814Z,29.15
2023-10-02T10:54:40.053Z,30.65
2023-10-02T10:57:24.388Z,29.30
2023-10-02T11:00:25.897Z,33.55
2023-10-02T11:03:12.941Z,30.35
2023-10-02T11:05:40.022Z,26.92
2023-10-02T11:08:26.527Z,29.55
2023-10-02T11:11:20.340Z,30.80
2023-10-02T11:13:53.789Z,32.88
2023-10-02T11:16:38.013Z,30.38
2023-10-02T11:19:23.382Z,31.95
2023-10-02T11:22:16.260Z,31.50
2023-10-02T11:25:20.024Z,29.08
2023-10-02T11:27:59.008Z,26.27
2023-10-02T11:30:35.129Z,30.58
2023-10-02T11:33:06.490Z,33.15
2023-10-02T11:35:41.034Z,29.30
2023-10-02T11:38:09.064Z,26.48
2023-10-02T11:40:36.387Z,31.20
2023-10-02T11:43:03.479Z,29.88
2023-10-02T11:45:30.991Z,28.15
2023-10-02T11:50:24.820Z,26.67
2023-10-02T11:52:52.840Z,30.60
2023-10-02T11:55:19.679Z,28.90
2023-10-02T11:57:52.732Z,28.45
2023-10-02T12:00:22.392Z,26.98
2023-10-02T12:02:50.766Z,27.98
2023-10-02T12:05:18.191Z,30.55
2023-10-02T12:07:45.555Z,23.75
2023-10-02T12:10:16.905Z,29.85
2023-10-02T12:12:47.541Z,25.65
2023-10-02T12:15:17.880Z,28.98
2023-10-02T12:17:45.703Z,25.63
2023-10-02T12:20:14.833Z,28.15
2023-10-02T12:22:45.709Z,32.40
2023-10-02T12:25:12.521Z,30.80
2023-10-02T12:27:42.451Z,26.20
2023-10-02T12:30:12.680Z,27.70
2023-10-02T12:32:40.537Z,24.67
2023-10-02T12:35:07.976Z,26.30
2023-10-02T12:37:35.015Z,24.75
2023-10-02T12:40:01.931Z,21.40
2023-10-02T12:42:30.485Z,20.75
2023-10-02T12:44:58.036Z,23.88
2023-10-02T12:49:55.668Z,18.05
2023-10-02T12:52:24.431Z,18.33
2023-10-02T12:54:51.203Z,19.80
2023-10-02T12:57:17.806Z,20.83
2023-10-02T12:59:45.094Z,16.80
2023-10-02T13:02:11.866Z,18.23
2023-10-02T13:04:39.267Z,16.98
2023-10-02T13:07:06.943Z,17.75
2023-10-02T13:09:34.539Z,17.95
2023-10-02T13:12:01.780Z,19.02
2023-10-02T13:14:28.782Z,14.88
2023-10-02T13:16:56.262Z,16.02
2023-10-02T13:19:23.167Z,16.50
2023-10-02T13:21:53.918Z,15.93
2023-10-02T13:24:24.875Z,18.48
2023-10-02T13:26:54.546Z,16.40
2023-10-02T13:29:22.380Z,14.82
2023-10-02T13:31:49.336Z,18.90
2023-10-02T13:34:16.224Z,17.88
2023-10-02T13:36:42.893Z,16.85
2023-10-02T13:39:18.004Z,17.60
2023-10-02T13:41:46.696Z,19.63
2023-10-02T13:44:13.583Z,13.88
2023-10-02T13:46:40.921Z,13.57
2023-10-02T13:49:08.816Z,16.65
2023-10-02T13:51:35.480Z,18.00
2023-10-02T13:54:02.772Z,16.83
2023-10-02T13:56:34.146Z,16.20
2023-10-02T13:59:02.057Z,15.30
2023-10-02T14:01:31.977Z,16.58
2023-10-02T14:03:58.936Z,17.98
2023-10-02T14:06:29.307Z,17.10
2023-10-02T14:08:57.158Z,19.73
2023-10-02T14:11:26.025Z,21.13
2023-10-02T14:13:58.532Z,17.48
2023-10-02T14:16:27.262Z,15.70
2023-10-02T14:18:55.587Z,16.75
2023-10-02T14:21:24.970Z,21.85
2023-10-02T14:23:56.457Z,15.38
2023-10-02T14:26:24.757Z,15.65
2023-10-02T14:28:56.799Z,15.43
2023-10-02T14:31:37.497Z,14.98
2023-10-02T14:34:08.185Z,18.83
2023-10-02T14:36:35.254Z,16.10
2023-10-02T14:39:05.317Z,18.48
2023-10-02T14:41:32.499Z,13.70
2023-10-02T14:43:59.454Z,15.75
2023-10-02T14:46:26.556Z,12.60
2023-10-02T14:48:54.772Z,14.38
2023-10-02T14:51:21.648Z,21.02
2023-10-02T14:53:48.252Z,16.50
2023-10-02T14:56:14.943Z,19.10
2023-10-02T14:58:51.704Z,18.88
2023-10-02T15:01:20.506Z,15.07
2023-10-02T15:03:49.079Z,15.70
2023-10-02T15:06:15.960Z,15.30
2023-10-02T15:08:43.081Z,15.68
2023-10-02T15:11:15.687Z,15.93
2023-10-02T15:13:43.658Z,16.40
2023-10-02T15:16:15.893Z,14.77
2023-10-02T15:18:43.457Z,21.50
2023-10-02T15:21:11.159Z,15.93
2023-10-02T15:26:05.823Z,18.42
2023-10-02T15:28:33.352Z,15.57
2023-10-02T15:31:00.388Z,16.40
2023-10-02T15:33:27.300Z,14.88
2023-10-02T15:35:54.361Z,16.17
2023-10-02T15:38:21.048Z,21.30
2023-10-02T15:40:48.251Z,20.35
2023-10-02T15:45:42.509Z,18.80
2023-10-02T15:48:09.132Z,15.60
2023-10-02T15:50:35.787Z,15.52
2023-10-02T15:53:02.812Z,16.92
2023-10-02T15:55:30.468Z,17.95
2023-10-02T15:57:57.809Z,14.63
2023-10-02T16:00:25.911Z,17.08
2023-10-02T16:03:03.412Z,15.45
2023-10-02T16:05:32.225Z,12.25
2023-10-02T16:08:01.132Z,14.75
2023-10-02T16:10:28.891Z,17.55
2023-10-02T16:12:55.492Z,15.77
2023-10-02T16:15:25.969Z,15.20
2023-10-02T16:17:59.970Z,17.20
2023-10-02T16:20:27.833Z,19.08
2023-10-02T16:22:58.295Z,17.58
2023-10-02T16:25:25.156Z,17.20
2023-10-02T16:27:53.594Z,18.88
2023-10-02T16:30:24.466Z,15.95
2023-10-02T16:32:56.442Z,17.50
2023-10-02T16:35:30.867Z,15.77
2023-10-02T16:38:04.591Z,12.00
2023-10-02T16:40:33.940Z,16.05
2023-10-02T16:43:10.968Z,14.85
2023-10-02T16:45:40.176Z,13.88
2023-10-02T16:48:07.056Z,15.55
2023-10-02T16:50:34.127Z,15.95
2023-10-02T16:53:01.179Z,15.02
2023-10-02T16:55:28.765Z,21.67
2023-10-02T16:57:59.868Z,19.15
2023-10-02T17:00:27.953Z,20.55
2023-10-02T17:02:59.328Z,19.60
2023-10-02T17:05:26.543Z,24.38
2023-10-02T17:07:55.172Z,21.52
2023-10-02T17:10:23.123Z,20.00
2023-10-02T17:12:51.938Z,21.05
2023-10-02T17:15:23.405Z,24.15
2023-10-02T17:17:51.466Z,18.17
2023-10-02T17:20:23.169Z,18.88
2023-10-02T17:22:52.684Z,20.02
2023-10-02T17:25:26.492Z,23.73
2023-10-02T17:27:55.742Z,20.13
2023-10-02T17:30:23.538Z,18.15
2023-10-02T17:32:50.664Z,21.98
2023-10-02T17:35:22.052Z,18.00
2023-10-02T17:37:49.690Z,18.55
2023-10-02T17:40:16.933Z,20.73
2023-10-02T17:42:44.794Z,19.63
2023-10-02T17:45:12.832Z,22.58
2023-10-02T17:47:42.664Z,22.00
2023-10-02T17:50:12.040Z,26.58
2023-10-02T17:52:40.734Z,26.52
2023-10-02T17:55:07.803Z,23.60
2023-10-02T17:57:35.551Z,25.42
2023-10-02T18:00:03.820Z,28.45
2023-10-02T18:02:32.094Z,24.85
2023-10-02T18:04:59.672Z,26.30
2023-10-02T18:07:29.879Z,32.45
2023-10-02T18:09:59.510Z,30.23
2023-10-02T18:12:26.446Z,26.90
2023-10-02T18:14:53.412Z,28.33
2023-10-02T18:17:20.507Z,31.00
2023-10-02T18:19:48.341Z,28.25
2023-10-02T18:22:16.177Z,32.30
2023-10-02T18:24:43.776Z,32.40
2023-10-02T18:27:11.508Z,30.80
2023-10-02T18:29:38.677Z,29.60
2023-10-02T18:32:05.607Z,29.88
2023-10-02T18:34:43.624Z,33.67
2023-10-02T18:37:12.481Z,36.15
2023-10-02T18:39:39.635Z,34.22
2023-10-02T18:42:06.591Z,35.03
2023-10-02T18:44:38.104Z,37.17
2023-10-02T18:47:05.688Z,38.72
2023-10-02T18:49:38.359Z,32.40
2023-10-02T18:52:05.344Z,33.08
2023-10-02T18:54:32.743Z,31.50
2023-10-02T18:57:00.371Z,40.25
2023-10-02T18:59:27.475Z,34.45
2023-10-02T19:01:54.311Z,36.45
2023-10-02T19:04:24.028Z,41.65
2023-10-02T19:06:51.014Z,32.40
2023-10-02T19:09:21.643Z,37.83
2023-10-02T19:11:48.582Z,39.88
2023-10-02T19:14:16.689Z,32.45
2023-10-02T19:16:43.678Z,33.35
2023-10-02T19:19:10.506Z,31.98
2023-10-02T19:21:37.159Z,26.92
2023-10-02T19:24:05.284Z,31.65
2023-10-02T19:26:33.753Z,32.20
2023-10-02T19:29:03.140Z,32.55
2023-10-02T19:31:31.243Z,36.28
2023-10-02T19:33:58.308Z,36.15
2023-10-02T19:36:25.161Z,40.28
2023-10-02T19:38:52.294Z,41.58
2023-10-02T19:41:20.987Z,42.67
2023-10-02T19:43:52.397Z,36.67
2023-10-02T19:46:19.386Z,36.17
2023-10-02T19:48:47.046Z,40.22
2023-10-02T19:51:15.926Z,38.53
2023-10-02T19:53:43.663Z,38.80
2023-10-02T19:56:13.150Z,33.67
2023-10-02T19:58:39.964Z,38.33
2023-10-02T20:01:06.671Z,40.47
2023-10-02T20:03:36.074Z,42.60
2023-10-02T20:06:11.860Z,39.17
2023-10-02T20:08:39.933Z,39.03
2023-10-02T20:11:06.996Z,41.78
2023-10-02T20:13:34.888Z,40.92
2023-10-02T20:16:01.820Z,36.15
2023-10-02T20:18:30.315Z,40.15
2023-10-02T20:20:58.358Z,38.78
2023-10-02T20:23:37.177Z,38.50
2023-10-02T20:26:12.257Z,39.80
2023-10-02T20:28:39.517Z,35.33
2023-10-02T20:31:11.218Z,38.55
2023-10-02T20:33:38.040Z,36.78
2023-10-02T20:36:08.356Z,35.28
2023-10-02T20:38:35.313Z,37.78
2023-10-02T20:41:02.155Z,31.25
2023-10-02T20:43:33.029Z,34.97
2023-10-02T20:45:59.701Z,42.75
2023-10-02T20:48:26.569Z,39.20
2023-10-02T20:50:53.697Z,43.30
2023-10-02T20:53:20.458Z,41.20
2023-10-02T20:55:53.224Z,40.45
2023-10-02T20:58:20.021Z,40.13
2023-10-02T21:00:47.650Z,37.10
2023-10-02T21:03:15.279Z,37.35
2023-10-02T21:05:42.262Z,38.92
2023-10-02T21:08:10.230Z,37.50
2023-10-02T21:13:04.266Z,34.65
2023-10-02T21:15:30.849Z,45.33
2023-10-02T21:17:57.501Z,40.60
2023-10-02T21:20:24.338Z,33.72
2023-10-02T21:22:50.969Z,40.08
2023-10-02T21:25:19.269Z,46.17
2023-10-02T21:27:46.519Z,37.83
2023-10-02T21:30:13.812Z,35.00
2023-10-02T21:32:42.969Z,36.92
2023-10-02T21:35:10.703Z,33.10
2023-10-02T21:37:38.126Z,35.22
2023-10-02T21:40:08.752Z,34.88
2023-10-02T21:42:35.902Z,33.55
2023-10-02T21:45:05.373Z,40.50
2023-10-02T21:47:32.693Z,35.20
2023-10-02T21:50:00.052Z,40.22
2023-10-02T21:52:26.882Z,36.65
2023-10-02T21:54:55.701Z,34.05
2023-10-02T21:57:24.027Z,28.55
2023-10-02T21:59:52.032Z,34.22
2023-10-02T22:02:20.049Z,34.30
2023-10-02T22:04:47.935Z,31.10
2023-10-02T22:07:16.153Z,38.95
2023-10-02T22:09:43.107Z,32.53
2023-10-02T22:12:09.768Z,34.30
2023-10-02T22:14:36.679Z,29.50
2023-10-02T22:17:08.675Z,32.53
2023-10-02T22:19:36.549Z,32.30
2023-10-02T22:22:06.927Z,29.08
2023-10-02T22:24:33.800Z,29.23
2023-10-02T22:27:00.489Z,33.05
2023-10-02T22:29:27.136Z,34.65
2023-10-02T22:31:53.812Z,31.58
2023-10-02T22:34:30.571Z,32.05
2023-10-02T22:37:07.066Z,31.33
2023-10-02T22:39:35.174Z,36.70
2023-10-02T22:42:02.258Z,37.85
2023-10-02T22:44:29.780Z,31.45
2023-10-02T22:46:56.963Z,28.02
2023-10-02T22:49:23.777Z,35.10
2023-10-02T22:51:50.663Z,34.10
2023-10-02T22:54:17.377Z,31.15
2023-10-02T22:56:45.774Z,31.45
2023-10-02T22:59:13.682Z,33.20
2023-10-02T23:01:42.894Z,33.65
2023-10-02T23:04:11.530Z,29.48
2023-10-02T23:06:38.450Z,27.05
2023-10-02T23:09:05.540Z,24.67
2023-10-02T23:11:32.540Z,30.23
2023-10-02T23:14:01.065Z,30.50
2023-10-02T23:16:28.022Z,30.52
2023-10-02T23:18:54.915Z,39.58
2023-10-02T23:21:22.231Z,29.95
2023-10-02T23:23:50.382Z,33.08
2023-10-02T23:26:18.471Z,28.42
2023-10-02T23:28:45.571Z,29.40
2023-10-02T23:31:12.876Z,35.03
2023-10-02T23:33:40.722Z,29.27
2023-10-02T23:38:43.440Z,29.73
2023-10-02T23:41:11.369Z,27.83
2023-10-02T23:43:38.408Z,32.58
2023-10-02T23:46:05.297Z,32.53
2023-10-02T23:48:36.800Z,30.77
2023-10-02T23:51:05.391Z,31.05
2023-10-02T23:53:39.387Z,28.10
2023-10-02T23:56:14.392Z,29.17
2023-10-02T23:58:43.011Z,30.77
